sensor_id;sensor_type;location;lat;lon;timestamp;temperature;humidity
68801;SHT31;55784;50.734;7.086;2023-06-04T00:01:48;14.54;57.09
68801;SHT31;55784;50.734;7.086;2023-06-04T00:04:14;14.50;57.47
68801;SHT31;55784;50.734;7.086;2023-06-04T00:06:40;14.45;57.89
68801;SHT31;55784;50.734;7.086;2023-06-04T00:09:05;14.40;58.10
68801;SHT31;55784;50.734;7.086;2023-06-04T00:11:30;14.34;58.47
68801;SHT31;55784;50.734;7.086;2023-06-04T00:13:58;14.27;58.66
68801;SHT31;55784;50.734;7.086;2023-06-04T00:16:24;14.21;58.95
68801;SHT31;55784;50.734;7.086;2023-06-04T00:18:49;14.12;59.45
68801;SHT31;55784;50.734;7.086;2023-06-04T00:21:14;14.02;59.64
68801;SHT31;55784;50.734;7.086;2023-06-04T00:23:40;13.98;59.79
68801;SHT31;55784;50.734;7.086;2023-06-04T00:26:05;13.93;60.00
68801;SHT31;55784;50.734;7.086;2023-06-04T00:28:30;13.98;60.50
68801;SHT31;55784;50.734;7.086;2023-06-04T00:30:56;13.93;60.56
68801;SHT31;55784;50.734;7.086;2023-06-04T00:33:21;13.92;60.25
68801;SHT31;55784;50.734;7.086;2023-06-04T00:35:46;13.83;60.34
68801;SHT31;55784;50.734;7.086;2023-06-04T00:38:13;13.80;60.58
68801;SHT31;55784;50.734;7.086;2023-06-04T00:40:38;13.73;60.79
68801;SHT31;55784;50.734;7.086;2023-06-04T00:43:03;13.66;61.06
68801;SHT31;55784;50.734;7.086;2023-06-04T00:45:28;13.63;61.50
68801;SHT31;55784;50.734;7.086;2023-06-04T00:47:56;13.65;61.63
68801;SHT31;55784;50.734;7.086;2023-06-04T00:50:21;13.58;61.63
68801;SHT31;55784;50.734;7.086;2023-06-04T00:52:48;13.51;61.87
68801;SHT31;55784;50.734;7.086;2023-06-04T00:55:14;13.45;61.86
68801;SHT31;55784;50.734;7.086;2023-06-04T00:57:43;13.47;61.90
68801;SHT31;55784;50.734;7.086;2023-06-04T01:00:09;13.38;62.07
68801;SHT31;55784;50.734;7.086;2023-06-04T01:02:38;13.35;62.78
68801;SHT31;55784;50.734;7.086;2023-06-04T01:05:20;13.27;62.88
68801;SHT31;55784;50.734;7.086;2023-06-04T01:07:47;13.22;63.02
68801;SHT31;55784;50.734;7.086;2023-06-04T01:10:13;13.17;63.39
68801;SHT31;55784;50.734;7.086;2023-06-04T01:12:40;13.10;63.40
68801;SHT31;55784;50.734;7.086;2023-06-04T01:15:06;13.04;63.40
68801;SHT31;55784;50.734;7.086;2023-06-04T01:17:37;12.97;63.53
68801;SHT31;55784;50.734;7.086;2023-06-04T01:20:34;12.97;63.65
68801;SHT31;55784;50.734;7.086;2023-06-04T01:23:24;12.94;64.12
68801;SHT31;55784;50.734;7.086;2023-06-04T01:25:54;12.94;64.18
68801;SHT31;55784;50.734;7.086;2023-06-04T01:28:22;12.87;64.76
68801;SHT31;55784;50.734;7.086;2023-06-04T01:30:48;12.83;65.11
68801;SHT31;55784;50.734;7.086;2023-06-04T01:33:17;12.88;65.20
68801;SHT31;55784;50.734;7.086;2023-06-04T01:35:43;12.83;65.22
68801;SHT31;55784;50.734;7.086;2023-06-04T01:38:09;12.79;65.51
68801;SHT31;55784;50.734;7.086;2023-06-04T01:40:35;12.73;65.57
68801;SHT31;55784;50.734;7.086;2023-06-04T01:43:01;12.66;65.42
68801;SHT31;55784;50.734;7.086;2023-06-04T01:45:27;12.64;65.62
68801;SHT31;55784;50.734;7.086;2023-06-04T01:47:53;12.64;65.59
68801;SHT31;55784;50.734;7.086;2023-06-04T01:50:19;12.57;65.76
68801;SHT31;55784;50.734;7.086;2023-06-04T01:52:44;12.54;65.98
68801;SHT31;55784;50.734;7.086;2023-06-04T01:55:12;12.50;66.09
68801;SHT31;55784;50.734;7.086;2023-06-04T01:57:38;12.44;66.63
68801;SHT31;55784;50.734;7.086;2023-06-04T02:00:05;12.37;66.68
68801;SHT31;55784;50.734;7.086;2023-06-04T02:02:35;12.30;67.07
68801;SHT31;55784;50.734;7.086;2023-06-04T02:05:03;12.28;67.07
68801;SHT31;55784;50.734;7.086;2023-06-04T02:07:28;12.25;67.20
68801;SHT31;55784;50.734;7.086;2023-06-04T02:09:54;12.22;67.48
68801;SHT31;55784;50.734;7.086;2023-06-04T02:12:19;12.16;67.66
68801;SHT31;55784;50.734;7.086;2023-06-04T02:14:45;12.11;67.83
68801;SHT31;55784;50.734;7.086;2023-06-04T02:17:11;12.06;68.15
68801;SHT31;55784;50.734;7.086;2023-06-04T02:19:42;12.05;68.51
68801;SHT31;55784;50.734;7.086;2023-06-04T02:22:15;12.01;68.79
68801;SHT31;55784;50.734;7.086;2023-06-04T02:24:40;11.92;68.76
68801;SHT31;55784;50.734;7.086;2023-06-04T02:27:11;11.86;68.89
68801;SHT31;55784;50.734;7.086;2023-06-04T02:29:37;11.83;69.17
68801;SHT31;55784;50.734;7.086;2023-06-04T02:32:03;11.81;69.47
68801;SHT31;55784;50.734;7.086;2023-06-04T02:34:29;11.75;69.38
68801;SHT31;55784;50.734;7.086;2023-06-04T02:36:55;11.77;69.44
68801;SHT31;55784;50.734;7.086;2023-06-04T02:39:20;11.77;69.45
68801;SHT31;55784;50.734;7.086;2023-06-04T02:41:45;11.65;69.79
68801;SHT31;55784;50.734;7.086;2023-06-04T02:44:11;11.58;69.94
68801;SHT31;55784;50.734;7.086;2023-06-04T02:46:37;11.60;69.94
68801;SHT31;55784;50.734;7.086;2023-06-04T02:49:02;11.54;70.06
68801;SHT31;55784;50.734;7.086;2023-06-04T02:51:28;11.52;70.20
68801;SHT31;55784;50.734;7.086;2023-06-04T02:53:53;11.45;70.37
68801;SHT31;55784;50.734;7.086;2023-06-04T02:56:19;11.40;70.71
68801;SHT31;55784;50.734;7.086;2023-06-04T02:58:53;11.37;70.89
68801;SHT31;55784;50.734;7.086;2023-06-04T03:01:21;11.31;71.14
68801;SHT31;55784;50.734;7.086;2023-06-04T03:03:47;11.27;71.08
68801;SHT31;55784;50.734;7.086;2023-06-04T03:06:13;11.24;70.90
68801;SHT31;55784;50.734;7.086;2023-06-04T03:08:41;11.21;70.96
68801;SHT31;55784;50.734;7.086;2023-06-04T03:11:07;11.17;70.94
68801;SHT31;55784;50.734;7.086;2023-06-04T03:13:32;11.19;71.02
68801;SHT31;55784;50.734;7.086;2023-06-04T03:15:58;11.17;71.29
68801;SHT31;55784;50.734;7.086;2023-06-04T03:18:26;11.20;70.99
68801;SHT31;55784;50.734;7.086;2023-06-04T03:20:52;11.26;70.94
68801;SHT31;55784;50.734;7.086;2023-06-04T03:23:18;11.26;70.96
68801;SHT31;55784;50.734;7.086;2023-06-04T03:25:43;11.21;71.05
68801;SHT31;55784;50.734;7.086;2023-06-04T03:28:09;11.20;71.09
68801;SHT31;55784;50.734;7.086;2023-06-04T03:30:34;11.16;71.31
68801;SHT31;55784;50.734;7.086;2023-06-04T03:32:59;11.09;71.84
68801;SHT31;55784;50.734;7.086;2023-06-04T03:35:25;11.10;71.72
68801;SHT31;55784;50.734;7.086;2023-06-04T03:37:50;11.11;71.90
68801;SHT31;55784;50.734;7.086;2023-06-04T03:40:16;11.06;71.87
68801;SHT31;55784;50.734;7.086;2023-06-04T03:42:41;11.06;71.54
68801;SHT31;55784;50.734;7.086;2023-06-04T03:45:07;11.06;71.55
68801;SHT31;55784;50.734;7.086;2023-06-04T03:47:33;11.09;71.44
68801;SHT31;55784;50.734;7.086;2023-06-04T03:49:58;11.13;71.45
68801;SHT31;55784;50.734;7.086;2023-06-04T03:52:23;11.10;71.47
68801;SHT31;55784;50.734;7.086;2023-06-04T03:54:48;11.14;71.46
68801;SHT31;55784;50.734;7.086;2023-06-04T03:57:14;11.14;71.46
68801;SHT31;55784;50.734;7.086;2023-06-04T03:59:40;11.20;71.40
68801;SHT31;55784;50.734;7.086;2023-06-04T04:02:05;11.20;71.42
68801;SHT31;55784;50.734;7.086;2023-06-04T04:04:31;11.23;71.29
68801;SHT31;55784;50.734;7.086;2023-06-04T04:06:58;11.26;71.48
68801;SHT31;55784;50.734;7.086;2023-06-04T04:09:25;11.30;71.53
68801;SHT31;55784;50.734;7.086;2023-06-04T04:11:50;11.34;71.40
68801;SHT31;55784;50.734;7.086;2023-06-04T04:14:16;11.98;69.89
68801;SHT31;55784;50.734;7.086;2023-06-04T04:16:41;12.86;66.79
68801;SHT31;55784;50.734;7.086;2023-06-04T04:19:07;13.51;64.68
68801;SHT31;55784;50.734;7.086;2023-06-04T04:21:34;14.14;62.78
68801;SHT31;55784;50.734;7.086;2023-06-04T04:24:02;14.75;60.93
68801;SHT31;55784;50.734;7.086;2023-06-04T04:26:28;15.19;59.80
68801;SHT31;55784;50.734;7.086;2023-06-04T04:28:53;15.49;59.10
68801;SHT31;55784;50.734;7.086;2023-06-04T04:31:28;15.86;57.80
68801;SHT31;55784;50.734;7.086;2023-06-04T04:33:55;16.13;57.11
68801;SHT31;55784;50.734;7.086;2023-06-04T04:36:21;16.03;57.07
68801;SHT31;55784;50.734;7.086;2023-06-04T04:38:46;16.34;56.57
68801;SHT31;55784;50.734;7.086;2023-06-04T04:41:19;16.75;55.60
68801;SHT31;55784;50.734;7.086;2023-06-04T04:43:45;16.86;54.82
68801;SHT31;55784;50.734;7.086;2023-06-04T04:46:11;17.26;54.13
68801;SHT31;55784;50.734;7.086;2023-06-04T04:48:36;17.53;53.36
68801;SHT31;55784;50.734;7.086;2023-06-04T04:51:03;17.81;52.85
68801;SHT31;55784;50.734;7.086;2023-06-04T04:53:29;18.06;52.14
68801;SHT31;55784;50.734;7.086;2023-06-04T04:55:54;18.16;51.98
68801;SHT31;55784;50.734;7.086;2023-06-04T04:58:20;18.36;51.65
68801;SHT31;55784;50.734;7.086;2023-06-04T05:00:45;18.34;51.56
68801;SHT31;55784;50.734;7.086;2023-06-04T05:03:12;18.34;51.80
68801;SHT31;55784;50.734;7.086;2023-06-04T05:05:38;18.62;50.97
68801;SHT31;55784;50.734;7.086;2023-06-04T05:08:03;18.86;50.55
68801;SHT31;55784;50.734;7.086;2023-06-04T05:10:28;19.10;50.09
68801;SHT31;55784;50.734;7.086;2023-06-04T05:12:55;19.17;49.83
68801;SHT31;55784;50.734;7.086;2023-06-04T05:15:21;19.34;49.31
68801;SHT31;55784;50.734;7.086;2023-06-04T05:17:47;19.58;48.88
68801;SHT31;55784;50.734;7.086;2023-06-04T05:20:13;19.83;48.33
68801;SHT31;55784;50.734;7.086;2023-06-04T05:22:40;20.08;47.96
68801;SHT31;55784;50.734;7.086;2023-06-04T05:25:06;20.33;47.38
68801;SHT31;55784;50.734;7.086;2023-06-04T05:27:32;20.13;47.99
68801;SHT31;55784;50.734;7.086;2023-06-04T05:29:58;20.05;48.26
68801;SHT31;55784;50.734;7.086;2023-06-04T05:32:23;19.92;48.08
68801;SHT31;55784;50.734;7.086;2023-06-04T05:34:49;19.60;48.32
68801;SHT31;55784;50.734;7.086;2023-06-04T05:37:15;19.51;48.25
68801;SHT31;55784;50.734;7.086;2023-06-04T05:39:42;19.13;49.11
68801;SHT31;55784;50.734;7.086;2023-06-04T05:42:08;19.32;48.59
68801;SHT31;55784;50.734;7.086;2023-06-04T05:44:33;19.04;48.70
68801;SHT31;55784;50.734;7.086;2023-06-04T05:46:59;18.86;49.17
68801;SHT31;55784;50.734;7.086;2023-06-04T05:49:24;18.29;49.22
68801;SHT31;55784;50.734;7.086;2023-06-04T05:51:50;18.18;49.82
68801;SHT31;55784;50.734;7.086;2023-06-04T05:54:15;18.79;49.06
68801;SHT31;55784;50.734;7.086;2023-06-04T05:56:41;17.90;50.09
68801;SHT31;55784;50.734;7.086;2023-06-04T05:59:06;18.38;49.06
68801;SHT31;55784;50.734;7.086;2023-06-04T06:01:31;19.07;48.30
68801;SHT31;55784;50.734;7.086;2023-06-04T06:03:57;19.37;47.58
68801;SHT31;55784;50.734;7.086;2023-06-04T06:06:22;19.75;46.90
68801;SHT31;55784;50.734;7.086;2023-06-04T06:08:48;19.47;47.10
68801;SHT31;55784;50.734;7.086;2023-06-04T06:11:15;18.31;48.51
68801;SHT31;55784;50.734;7.086;2023-06-04T06:13:40;18.39;48.79
68801;SHT31;55784;50.734;7.086;2023-06-04T06:16:05;19.09;47.62
68801;SHT31;55784;50.734;7.086;2023-06-04T06:18:31;19.53;46.09
68801;SHT31;55784;50.734;7.086;2023-06-04T06:20:56;19.95;44.30
68801;SHT31;55784;50.734;7.086;2023-06-04T06:23:22;19.40;44.90
68801;SHT31;55784;50.734;7.086;2023-06-04T06:25:49;18.52;46.82
68801;SHT31;55784;50.734;7.086;2023-06-04T06:28:17;18.45;47.90
68801;SHT31;55784;50.734;7.086;2023-06-04T06:30:42;18.35;47.44
68801;SHT31;55784;50.734;7.086;2023-06-04T06:33:07;18.36;47.80
68801;SHT31;55784;50.734;7.086;2023-06-04T06:35:33;18.55;47.67
68801;SHT31;55784;50.734;7.086;2023-06-04T06:37:58;18.97;46.10
68801;SHT31;55784;50.734;7.086;2023-06-04T06:40:24;19.21;45.18
68801;SHT31;55784;50.734;7.086;2023-06-04T06:42:49;19.28;45.45
68801;SHT31;55784;50.734;7.086;2023-06-04T06:45:17;19.38;44.99
68801;SHT31;55784;50.734;7.086;2023-06-04T06:47:42;19.43;45.10
68801;SHT31;55784;50.734;7.086;2023-06-04T06:50:08;19.37;45.34
68801;SHT31;55784;50.734;7.086;2023-06-04T06:52:33;19.00;45.88
68801;SHT31;55784;50.734;7.086;2023-06-04T06:54:59;19.07;45.66
68801;SHT31;55784;50.734;7.086;2023-06-04T06:57:24;19.03;45.76
68801;SHT31;55784;50.734;7.086;2023-06-04T06:59:49;18.89;46.08
68801;SHT31;55784;50.734;7.086;2023-06-04T07:02:17;18.79;46.32
68801;SHT31;55784;50.734;7.086;2023-06-04T07:04:42;18.73;46.26
68801;SHT31;55784;50.734;7.086;2023-06-04T07:07:07;18.12;47.59
68801;SHT31;55784;50.734;7.086;2023-06-04T07:09:33;18.06;47.99
68801;SHT31;55784;50.734;7.086;2023-06-04T07:11:59;17.59;49.00
68801;SHT31;55784;50.734;7.086;2023-06-04T07:14:25;17.54;48.45
68801;SHT31;55784;50.734;7.086;2023-06-04T07:16:50;17.80;48.84
68801;SHT31;55784;50.734;7.086;2023-06-04T07:19:15;17.94;48.99
68801;SHT31;55784;50.734;7.086;2023-06-04T07:21:41;17.80;49.55
68801;SHT31;55784;50.734;7.086;2023-06-04T07:24:06;17.63;49.32
68801;SHT31;55784;50.734;7.086;2023-06-04T07:26:32;17.60;50.13
68801;SHT31;55784;50.734;7.086;2023-06-04T07:28:57;17.66;49.42
68801;SHT31;55784;50.734;7.086;2023-06-04T07:31:23;17.57;50.07
68801;SHT31;55784;50.734;7.086;2023-06-04T07:33:48;17.51;50.36
68801;SHT31;55784;50.734;7.086;2023-06-04T07:36:13;17.47;50.51
68801;SHT31;55784;50.734;7.086;2023-06-04T07:38:39;17.71;50.65
68801;SHT31;55784;50.734;7.086;2023-06-04T07:41:05;17.69;50.30
68801;SHT31;55784;50.734;7.086;2023-06-04T07:43:30;17.74;50.28
68801;SHT31;55784;50.734;7.086;2023-06-04T07:45:55;17.66;51.01
68801;SHT31;55784;50.734;7.086;2023-06-04T07:48:21;17.60;51.17
68801;SHT31;55784;50.734;7.086;2023-06-04T07:50:46;17.44;51.28
68801;SHT31;55784;50.734;7.086;2023-06-04T07:53:12;17.59;49.96
68801;SHT31;55784;50.734;7.086;2023-06-04T07:55:38;17.87;51.51
68801;SHT31;55784;50.734;7.086;2023-06-04T07:58:03;18.12;49.60
68801;SHT31;55784;50.734;7.086;2023-06-04T08:00:30;18.11;49.92
68801;SHT31;55784;50.734;7.086;2023-06-04T08:02:56;17.91;49.76
68801;SHT31;55784;50.734;7.086;2023-06-04T08:05:22;17.94;50.54
68801;SHT31;55784;50.734;7.086;2023-06-04T08:07:48;18.22;50.08
68801;SHT31;55784;50.734;7.086;2023-06-04T08:10:13;18.53;49.19
68801;SHT31;55784;50.734;7.086;2023-06-04T08:12:38;18.69;48.42
68801;SHT31;55784;50.734;7.086;2023-06-04T08:15:04;18.93;48.88
68801;SHT31;55784;50.734;7.086;2023-06-04T08:17:30;18.82;48.41
68801;SHT31;55784;50.734;7.086;2023-06-04T08:19:56;18.76;48.45
68801;SHT31;55784;50.734;7.086;2023-06-04T08:22:21;18.75;47.80
68801;SHT31;55784;50.734;7.086;2023-06-04T08:24:46;18.83;48.32
68801;SHT31;55784;50.734;7.086;2023-06-04T08:27:12;19.07;48.19
68801;SHT31;55784;50.734;7.086;2023-06-04T08:29:37;19.14;47.99
68801;SHT31;55784;50.734;7.086;2023-06-04T08:32:04;19.03;48.48
68801;SHT31;55784;50.734;7.086;2023-06-04T08:34:30;19.06;48.46
68801;SHT31;55784;50.734;7.086;2023-06-04T08:36:55;18.99;48.48
68801;SHT31;55784;50.734;7.086;2023-06-04T08:39:21;19.20;48.85
68801;SHT31;55784;50.734;7.086;2023-06-04T08:42:00;19.55;48.04
68801;SHT31;55784;50.734;7.086;2023-06-04T08:44:29;19.57;48.08
68801;SHT31;55784;50.734;7.086;2023-06-04T08:47:02;19.70;47.52
68801;SHT31;55784;50.734;7.086;2023-06-04T08:49:31;19.89;47.32
68801;SHT31;55784;50.734;7.086;2023-06-04T08:51:57;20.01;46.35
68801;SHT31;55784;50.734;7.086;2023-06-04T08:54:24;20.13;45.68
68801;SHT31;55784;50.734;7.086;2023-06-04T08:56:49;20.36;44.61
68801;SHT31;55784;50.734;7.086;2023-06-04T08:59:17;20.52;43.52
68801;SHT31;55784;50.734;7.086;2023-06-04T09:01:44;20.62;42.35
68801;SHT31;55784;50.734;7.086;2023-06-04T09:04:10;20.70;42.95
68801;SHT31;55784;50.734;7.086;2023-06-04T09:06:42;20.86;42.46
68801;SHT31;55784;50.734;7.086;2023-06-04T09:09:10;20.70;43.09
68801;SHT31;55784;50.734;7.086;2023-06-04T09:11:41;20.73;43.41
68801;SHT31;55784;50.734;7.086;2023-06-04T09:14:11;20.90;42.50
68801;SHT31;55784;50.734;7.086;2023-06-04T09:16:46;20.91;43.07
68801;SHT31;55784;50.734;7.086;2023-06-04T09:19:11;21.01;42.58
68801;SHT31;55784;50.734;7.086;2023-06-04T09:22:06;21.12;41.97
68801;SHT31;55784;50.734;7.086;2023-06-04T09:27:16;20.86;41.25
68801;SHT31;55784;50.734;7.086;2023-06-04T09:29:52;21.18;41.54
68801;SHT31;55784;50.734;7.086;2023-06-04T09:32:29;21.42;41.75
68801;SHT31;55784;50.734;7.086;2023-06-04T09:37:40;21.74;37.77
68801;SHT31;55784;50.734;7.086;2023-06-04T09:40:07;21.75;35.17
68801;SHT31;55784;50.734;7.086;2023-06-04T09:42:46;21.79;36.60
68801;SHT31;55784;50.734;7.086;2023-06-04T09:45:26;22.02;36.87
68801;SHT31;55784;50.734;7.086;2023-06-04T09:47:51;22.13;35.63
68801;SHT31;55784;50.734;7.086;2023-06-04T09:50:31;22.24;35.51
68801;SHT31;55784;50.734;7.086;2023-06-04T09:52:58;22.28;35.27
68801;SHT31;55784;50.734;7.086;2023-06-04T09:55:24;22.40;35.35
68801;SHT31;55784;50.734;7.086;2023-06-04T09:57:51;22.44;35.02
68801;SHT31;55784;50.734;7.086;2023-06-04T10:00:17;22.54;34.05
68801;SHT31;55784;50.734;7.086;2023-06-04T10:02:44;22.61;34.62
68801;SHT31;55784;50.734;7.086;2023-06-04T10:05:11;22.71;34.85
68801;SHT31;55784;50.734;7.086;2023-06-04T10:07:41;22.80;34.77
68801;SHT31;55784;50.734;7.086;2023-06-04T10:10:12;22.80;34.30
68801;SHT31;55784;50.734;7.086;2023-06-04T10:12:39;22.84;34.48
68801;SHT31;55784;50.734;7.086;2023-06-04T10:15:10;22.70;34.76
68801;SHT31;55784;50.734;7.086;2023-06-04T10:17:37;22.68;34.14
68801;SHT31;55784;50.734;7.086;2023-06-04T10:20:04;22.84;35.67
68801;SHT31;55784;50.734;7.086;2023-06-04T10:22:31;22.75;34.87
68801;SHT31;55784;50.734;7.086;2023-06-04T10:24:58;22.90;35.78
68801;SHT31;55784;50.734;7.086;2023-06-04T10:27:23;22.98;34.85
68801;SHT31;55784;50.734;7.086;2023-06-04T10:29:49;23.05;35.41
68801;SHT31;55784;50.734;7.086;2023-06-04T10:32:15;23.14;34.83
68801;SHT31;55784;50.734;7.086;2023-06-04T10:34:41;23.19;34.52
68801;SHT31;55784;50.734;7.086;2023-06-04T10:37:18;23.07;33.75
68801;SHT31;55784;50.734;7.086;2023-06-04T10:39:50;23.16;33.94
68801;SHT31;55784;50.734;7.086;2023-06-04T10:42:16;23.00;34.20
68801;SHT31;55784;50.734;7.086;2023-06-04T10:44:48;23.12;34.61
68801;SHT31;55784;50.734;7.086;2023-06-04T10:47:26;23.14;34.94
68801;SHT31;55784;50.734;7.086;2023-06-04T10:49:55;23.19;35.11
68801;SHT31;55784;50.734;7.086;2023-06-04T10:52:23;23.19;34.79
68801;SHT31;55784;50.734;7.086;2023-06-04T10:54:48;23.25;34.13
68801;SHT31;55784;50.734;7.086;2023-06-04T10:57:15;23.00;33.79
68801;SHT31;55784;50.734;7.086;2023-06-04T10:59:42;23.11;33.75
68801;SHT31;55784;50.734;7.086;2023-06-04T11:02:08;22.78;33.46
68801;SHT31;55784;50.734;7.086;2023-06-04T11:04:34;22.80;33.99
68801;SHT31;55784;50.734;7.086;2023-06-04T11:07:04;22.95;34.03
68801;SHT31;55784;50.734;7.086;2023-06-04T11:09:34;23.07;33.58
68801;SHT31;55784;50.734;7.086;2023-06-04T11:12:00;22.98;34.03
68801;SHT31;55784;50.734;7.086;2023-06-04T11:14:26;23.00;34.60
68801;SHT31;55784;50.734;7.086;2023-06-04T11:16:51;23.15;35.35
68801;SHT31;55784;50.734;7.086;2023-06-04T11:19:17;23.25;33.74
68801;SHT31;55784;50.734;7.086;2023-06-04T11:21:43;22.94;33.72
68801;SHT31;55784;50.734;7.086;2023-06-04T11:24:08;22.97;33.45
68801;SHT31;55784;50.734;7.086;2023-06-04T11:26:35;23.10;33.73
68801;SHT31;55784;50.734;7.086;2023-06-04T11:29:07;23.35;34.28
68801;SHT31;55784;50.734;7.086;2023-06-04T11:31:47;23.62;34.61
68801;SHT31;55784;50.734;7.086;2023-06-04T11:34:26;23.67;34.68
68801;SHT31;55784;50.734;7.086;2023-06-04T11:36:52;23.85;34.25
68801;SHT31;55784;50.734;7.086;2023-06-04T11:39:21;23.90;33.40
68801;SHT31;55784;50.734;7.086;2023-06-04T11:41:47;23.99;33.45
68801;SHT31;55784;50.734;7.086;2023-06-04T11:44:13;23.48;32.77
68801;SHT31;55784;50.734;7.086;2023-06-04T11:46:40;23.69;33.81
68801;SHT31;55784;50.734;7.086;2023-06-04T11:49:06;23.77;33.16
68801;SHT31;55784;50.734;7.086;2023-06-04T11:51:33;23.89;33.11
68801;SHT31;55784;50.734;7.086;2023-06-04T11:53:58;23.93;33.26
68801;SHT31;55784;50.734;7.086;2023-06-04T11:56:24;24.12;33.01
68801;SHT31;55784;50.734;7.086;2023-06-04T11:58:51;24.18;33.91
68801;SHT31;55784;50.734;7.086;2023-06-04T12:01:17;24.23;33.18
68801;SHT31;55784;50.734;7.086;2023-06-04T12:03:43;24.34;33.18
68801;SHT31;55784;50.734;7.086;2023-06-04T12:06:19;24.36;32.82
68801;SHT31;55784;50.734;7.086;2023-06-04T12:11:33;24.51;32.61
68801;SHT31;55784;50.734;7.086;2023-06-04T12:14:00;24.50;32.11
68801;SHT31;55784;50.734;7.086;2023-06-04T12:16:26;24.53;32.04
68801;SHT31;55784;50.734;7.086;2023-06-04T12:18:51;24.50;31.94
68801;SHT31;55784;50.734;7.086;2023-06-04T12:21:21;24.60;32.54
68801;SHT31;55784;50.734;7.086;2023-06-04T12:23:47;24.68;31.70
68801;SHT31;55784;50.734;7.086;2023-06-04T12:26:25;24.57;31.86
68801;SHT31;55784;50.734;7.086;2023-06-04T12:29:01;24.60;31.21
68801;SHT31;55784;50.734;7.086;2023-06-04T12:31:27;23.97;31.14
68801;SHT31;55784;50.734;7.086;2023-06-04T12:34:00;24.26;31.84
68801;SHT31;55784;50.734;7.086;2023-06-04T12:36:26;24.41;31.51
68801;SHT31;55784;50.734;7.086;2023-06-04T12:38:51;24.38;31.38
68801;SHT31;55784;50.734;7.086;2023-06-04T12:41:17;24.58;31.83
68801;SHT31;55784;50.734;7.086;2023-06-04T12:43:42;24.65;31.84
68801;SHT31;55784;50.734;7.086;2023-06-04T12:46:07;24.74;32.22
68801;SHT31;55784;50.734;7.086;2023-06-04T12:48:33;24.77;30.42
68801;SHT31;55784;50.734;7.086;2023-06-04T12:50:58;24.84;30.39
68801;SHT31;55784;50.734;7.086;2023-06-04T12:53:24;24.87;30.62
68801;SHT31;55784;50.734;7.086;2023-06-04T12:55:49;24.85;29.95
68801;SHT31;55784;50.734;7.086;2023-06-04T12:58:15;24.82;30.32
68801;SHT31;55784;50.734;7.086;2023-06-04T13:00:40;24.63;30.72
68801;SHT31;55784;50.734;7.086;2023-06-04T13:03:05;24.26;30.50
68801;SHT31;55784;50.734;7.086;2023-06-04T13:05:31;24.30;31.01
68801;SHT31;55784;50.734;7.086;2023-06-04T13:07:56;24.40;30.75
68801;SHT31;55784;50.734;7.086;2023-06-04T13:10:21;24.61;31.06
68801;SHT31;55784;50.734;7.086;2023-06-04T13:12:47;24.65;31.66
68801;SHT31;55784;50.734;7.086;2023-06-04T13:15:12;24.89;31.71
68801;SHT31;55784;50.734;7.086;2023-06-04T13:17:37;25.08;31.35
68801;SHT31;55784;50.734;7.086;2023-06-04T13:20:03;25.09;31.22
68801;SHT31;55784;50.734;7.086;2023-06-04T13:22:28;25.09;31.43
68801;SHT31;55784;50.734;7.086;2023-06-04T13:24:54;25.20;31.32
68801;SHT31;55784;50.734;7.086;2023-06-04T13:27:19;25.16;30.41
68801;SHT31;55784;50.734;7.086;2023-06-04T13:29:45;25.22;30.91
68801;SHT31;55784;50.734;7.086;2023-06-04T13:32:10;25.23;30.92
68801;SHT31;55784;50.734;7.086;2023-06-04T13:34:36;25.30;30.89
68801;SHT31;55784;50.734;7.086;2023-06-04T13:37:01;25.33;30.95
68801;SHT31;55784;50.734;7.086;2023-06-04T13:39:27;25.35;31.08
68801;SHT31;55784;50.734;7.086;2023-06-04T13:41:52;25.36;30.40
68801;SHT31;55784;50.734;7.086;2023-06-04T13:44:17;25.09;30.22
68801;SHT31;55784;50.734;7.086;2023-06-04T13:46:43;24.85;30.53
68801;SHT31;55784;50.734;7.086;2023-06-04T13:49:08;25.08;30.54
68801;SHT31;55784;50.734;7.086;2023-06-04T13:51:34;25.20;30.88
68801;SHT31;55784;50.734;7.086;2023-06-04T13:54:05;24.96;29.95
68801;SHT31;55784;50.734;7.086;2023-06-04T13:56:53;24.85;30.54
68801;SHT31;55784;50.734;7.086;2023-06-04T13:59:26;24.96;30.73
68801;SHT31;55784;50.734;7.086;2023-06-04T14:05:40;25.09;30.54
68801;SHT31;55784;50.734;7.086;2023-06-04T14:08:32;24.99;30.25
68801;SHT31;55784;50.734;7.086;2023-06-04T14:10:58;24.79;30.50
68801;SHT31;55784;50.734;7.086;2023-06-04T14:17:17;25.02;30.32
68801;SHT31;55784;50.734;7.086;2023-06-04T14:22:55;25.12;30.62
68801;SHT31;55784;50.734;7.086;2023-06-04T14:25:48;25.14;29.85
68801;SHT31;55784;50.734;7.086;2023-06-04T14:28:38;25.01;29.78
68801;SHT31;55784;50.734;7.086;2023-06-04T14:31:15;25.12;30.15
68801;SHT31;55784;50.734;7.086;2023-06-04T14:33:53;25.25;29.76
68801;SHT31;55784;50.734;7.086;2023-06-04T14:36:59;25.14;28.78
68801;SHT31;55784;50.734;7.086;2023-06-04T14:39:41;25.32;29.71
68801;SHT31;55784;50.734;7.086;2023-06-04T14:42:06;25.28;29.36
68801;SHT31;55784;50.734;7.086;2023-06-04T14:44:31;25.05;28.81
68801;SHT31;55784;50.734;7.086;2023-06-04T14:46:58;25.15;29.97
68801;SHT31;55784;50.734;7.086;2023-06-04T14:49:23;25.42;29.49
68801;SHT31;55784;50.734;7.086;2023-06-04T14:51:48;25.33;30.91
68801;SHT31;55784;50.734;7.086;2023-06-04T14:54:14;25.50;29.34
68801;SHT31;55784;50.734;7.086;2023-06-04T14:56:39;25.47;29.48
68801;SHT31;55784;50.734;7.086;2023-06-04T14:59:05;25.28;29.58
68801;SHT31;55784;50.734;7.086;2023-06-04T15:01:35;25.35;29.38
68801;SHT31;55784;50.734;7.086;2023-06-04T15:04:01;25.40;29.48
68801;SHT31;55784;50.734;7.086;2023-06-04T15:06:27;25.36;29.62
68801;SHT31;55784;50.734;7.086;2023-06-04T15:08:52;25.53;30.78
68801;SHT31;55784;50.734;7.086;2023-06-04T15:11:18;25.49;30.05
68801;SHT31;55784;50.734;7.086;2023-06-04T15:13:43;25.63;29.64
68801;SHT31;55784;50.734;7.086;2023-06-04T15:16:09;25.60;30.06
68801;SHT31;55784;50.734;7.086;2023-06-04T15:18:34;25.65;30.22
68801;SHT31;55784;50.734;7.086;2023-06-04T15:20:59;25.74;30.11
68801;SHT31;55784;50.734;7.086;2023-06-04T15:23:25;25.52;29.42
68801;SHT31;55784;50.734;7.086;2023-06-04T15:25:50;25.70;31.06
68801;SHT31;55784;50.734;7.086;2023-06-04T15:28:15;25.79;29.83
68801;SHT31;55784;50.734;7.086;2023-06-04T15:30:41;25.70;28.93
68801;SHT31;55784;50.734;7.086;2023-06-04T15:33:06;25.72;29.40
68801;SHT31;55784;50.734;7.086;2023-06-04T15:35:31;25.66;29.64
68801;SHT31;55784;50.734;7.086;2023-06-04T15:37:59;25.77;29.93
68801;SHT31;55784;50.734;7.086;2023-06-04T15:40:25;25.83;29.93
68801;SHT31;55784;50.734;7.086;2023-06-04T15:42:50;25.82;29.85
68801;SHT31;55784;50.734;7.086;2023-06-04T15:45:15;25.73;29.05
68801;SHT31;55784;50.734;7.086;2023-06-04T15:47:41;25.42;28.81
68801;SHT31;55784;50.734;7.086;2023-06-04T15:50:07;25.36;28.92